sensor_id;sensor_type;location;lat;lon;timestamp;P1;durP1;ratioP1;P2;durP2;ratioP2
66721;SDS011;53633;49.932;10.884;2023-11-18T00:00:03;12.07;;;4.57;;
66721;SDS011;53633;49.932;10.884;2023-11-18T00:02:31;12.45;;;4.40;;
66721;SDS011;53633;49.932;10.884;2023-11-18T00:04:59;10.57;;;4.30;;
66721;SDS011;53633;49.932;10.884;2023-11-18T00:07:26;11.23;;;4.72;;
66721;SDS011;53633;49.932;10.884;2023-11-18T00:09:52;11.48;;;4.65;;
66721;SDS011;53633;49.932;10.884;2023-11-18T00:12:19;10.63;;;4.00;;
66721;SDS011;53633;49.932;10.884;2023-11-18T00:14:46;11.80;;;4.03;;
66721;SDS011;53633;49.932;10.884;2023-11-18T00:17:13;11.27;;;3.93;;
66721;SDS011;53633;49.932;10.884;2023-11-18T00:19:39;9.00;;;3.83;;
66721;SDS011;53633;49.932;10.884;2023-11-18T00:22:07;12.32;;;4.53;;
66721;SDS011;53633;49.932;10.884;2023-11-18T00:24:34;13.15;;;4.53;;
66721;SDS011;53633;49.932;10.884;2023-11-18T00:27:01;12.43;;;5.28;;
66721;SDS011;53633;49.932;10.884;2023-11-18T00:29:28;12.17;;;4.80;;
66721;SDS011;53633;49.932;10.884;2023-11-18T00:31:54;10.40;;;4.28;;
66721;SDS011;53633;49.932;10.884;2023-11-18T00:34:21;10.63;;;4.45;;
66721;SDS011;53633;49.932;10.884;2023-11-18T00:36:48;12.32;;;4.50;;
66721;SDS011;53633;49.932;10.884;2023-11-18T00:39:16;14.32;;;4.55;;
66721;SDS011;53633;49.932;10.884;2023-11-18T00:41:42;11.30;;;4.10;;
66721;SDS011;53633;49.932;10.884;2023-11-18T00:44:09;9.63;;;4.18;;
66721;SDS011;53633;49.932;10.884;2023-11-18T00:46:36;13.23;;;5.13;;
66721;SDS011;53633;49.932;10.884;2023-11-18T00:49:03;12.05;;;5.20;;
66721;SDS011;53633;49.932;10.884;2023-11-18T00:51:30;11.52;;;4.70;;
66721;SDS011;53633;49.932;10.884;2023-11-18T00:53:56;10.93;;;4.67;;
66721;SDS011;53633;49.932;10.884;2023-11-18T00:56:25;11.85;;;4.10;;
66721;SDS011;53633;49.932;10.884;2023-11-18T00:58:51;13.75;;;4.70;;
66721;SDS011;53633;49.932;10.884;2023-11-18T01:01:18;10.27;;;3.97;;
66721;SDS011;53633;49.932;10.884;2023-11-18T01:03:45;9.07;;;3.47;;
66721;SDS011;53633;49.932;10.884;2023-11-18T01:06:11;11.87;;;4.13;;
66721;SDS011;53633;49.932;10.884;2023-11-18T01:08:38;12.45;;;4.60;;
66721;SDS011;53633;49.932;10.884;2023-11-18T01:11:05;10.73;;;4.47;;
66721;SDS011;53633;49.932;10.884;2023-11-18T01:13:33;12.57;;;3.95;;
66721;SDS011;53633;49.932;10.884;2023-11-18T01:16:00;13.40;;;4.68;;
66721;SDS011;53633;49.932;10.884;2023-11-18T01:18:26;10.20;;;3.90;;
66721;SDS011;53633;49.932;10.884;2023-11-18T01:20:53;12.38;;;5.03;;
66721;SDS011;53633;49.932;10.884;2023-11-18T01:23:20;13.93;;;5.38;;
66721;SDS011;53633;49.932;10.884;2023-11-18T01:25:47;10.50;;;4.30;;
66721;SDS011;53633;49.932;10.884;2023-11-18T01:28:13;11.63;;;4.72;;
66721;SDS011;53633;49.932;10.884;2023-11-18T01:30:42;9.20;;;4.07;;
66721;SDS011;53633;49.932;10.884;2023-11-18T01:33:08;15.07;;;4.43;;
66721;SDS011;53633;49.932;10.884;2023-11-18T01:35:35;12.25;;;4.30;;
66721;SDS011;53633;49.932;10.884;2023-11-18T01:38:02;12.50;;;4.53;;
66721;SDS011;53633;49.932;10.884;2023-11-18T01:40:29;11.68;;;4.15;;
66721;SDS011;53633;49.932;10.884;2023-11-18T01:42:55;13.03;;;4.90;;
66721;SDS011;53633;49.932;10.884;2023-11-18T01:45:22;13.25;;;5.20;;
66721;SDS011;53633;49.932;10.884;2023-11-18T01:47:50;12.55;;;5.05;;
66721;SDS011;53633;49.932;10.884;2023-11-18T01:50:17;13.60;;;5.30;;
66721;SDS011;53633;49.932;10.884;2023-11-18T01:52:45;16.27;;;5.63;;
66721;SDS011;53633;49.932;10.884;2023-11-18T01:55:12;13.87;;;5.13;;
66721;SDS011;53633;49.932;10.884;2023-11-18T01:57:39;16.08;;;5.32;;
66721;SDS011;53633;49.932;10.884;2023-11-18T02:00:06;15.40;;;5.10;;
66721;SDS011;53633;49.932;10.884;2023-11-18T02:02:34;13.70;;;5.80;;
66721;SDS011;53633;49.932;10.884;2023-11-18T02:05:02;14.80;;;5.57;;
66721;SDS011;53633;49.932;10.884;2023-11-18T02:07:29;14.63;;;5.23;;
66721;SDS011;53633;49.932;10.884;2023-11-18T02:09:56;12.70;;;5.03;;
66721;SDS011;53633;49.932;10.884;2023-11-18T02:12:23;13.35;;;5.28;;
66721;SDS011;53633;49.932;10.884;2023-11-18T02:14:55;13.57;;;4.93;;
66721;SDS011;53633;49.932;10.884;2023-11-18T02:17:23;13.20;;;5.18;;
66721;SDS011;53633;49.932;10.884;2023-11-18T02:19:52;13.17;;;5.53;;
66721;SDS011;53633;49.932;10.884;2023-11-18T02:22:20;12.85;;;5.47;;
66721;SDS011;53633;49.932;10.884;2023-11-18T02:24:48;11.95;;;5.75;;
66721;SDS011;53633;49.932;10.884;2023-11-18T02:27:16;12.45;;;5.43;;
66721;SDS011;53633;49.932;10.884;2023-11-18T02:29:43;10.27;;;4.30;;
66721;SDS011;53633;49.932;10.884;2023-11-18T02:32:13;14.80;;;4.67;;
66721;SDS011;53633;49.932;10.884;2023-11-18T02:34:46;13.75;;;4.28;;
66721;SDS011;53633;49.932;10.884;2023-11-18T02:37:19;13.10;;;5.60;;
66721;SDS011;53633;49.932;10.884;2023-11-18T02:39:48;12.30;;;4.75;;
66721;SDS011;53633;49.932;10.884;2023-11-18T02:42:21;13.90;;;4.90;;
66721;SDS011;53633;49.932;10.884;2023-11-18T02:44:48;11.33;;;4.70;;
66721;SDS011;53633;49.932;10.884;2023-11-18T02:47:17;12.65;;;5.38;;
66721;SDS011;53633;49.932;10.884;2023-11-18T02:49:43;15.30;;;5.38;;
66721;SDS011;53633;49.932;10.884;2023-11-18T02:52:10;13.25;;;5.60;;
66721;SDS011;53633;49.932;10.884;2023-11-18T02:54:37;12.35;;;4.55;;
66721;SDS011;53633;49.932;10.884;2023-11-18T02:57:03;11.83;;;4.00;;
66721;SDS011;53633;49.932;10.884;2023-11-18T02:59:32;11.23;;;4.57;;
66721;SDS011;53633;49.932;10.884;2023-11-18T03:01:58;12.68;;;4.82;;
66721;SDS011;53633;49.932;10.884;2023-11-18T03:04:25;12.15;;;4.40;;
66721;SDS011;53633;49.932;10.884;2023-11-18T03:06:52;15.25;;;5.30;;
66721;SDS011;53633;49.932;10.884;2023-11-18T03:09:19;13.87;;;4.83;;
66721;SDS011;53633;49.932;10.884;2023-11-18T03:11:45;13.00;;;4.60;;
66721;SDS011;53633;49.932;10.884;2023-11-18T03:14:12;12.50;;;5.47;;
66721;SDS011;53633;49.932;10.884;2023-11-18T03:16:40;11.15;;;4.78;;
66721;SDS011;53633;49.932;10.884;2023-11-18T03:19:07;12.05;;;4.32;;
66721;SDS011;53633;49.932;10.884;2023-11-18T03:21:34;10.67;;;4.50;;
66721;SDS011;53633;49.932;10.884;2023-11-18T03:24:01;11.45;;;4.28;;
66721;SDS011;53633;49.932;10.884;2023-11-18T03:26:27;11.98;;;4.50;;
66721;SDS011;53633;49.932;10.884;2023-11-18T03:28:54;13.13;;;4.50;;
66721;SDS011;53633;49.932;10.884;2023-11-18T03:31:21;9.90;;;4.50;;
66721;SDS011;53633;49.932;10.884;2023-11-18T03:33:48;10.20;;;4.43;;
66721;SDS011;53633;49.932;10.884;2023-11-18T03:36:15;11.30;;;4.00;;
66721;SDS011;53633;49.932;10.884;2023-11-18T03:38:42;9.73;;;3.67;;
66721;SDS011;53633;49.932;10.884;2023-11-18T03:41:09;11.85;;;3.95;;
66721;SDS011;53633;49.932;10.884;2023-11-18T03:43:36;10.27;;;4.18;;
66721;SDS011;53633;49.932;10.884;2023-11-18T03:46:03;11.00;;;3.97;;
66721;SDS011;53633;49.932;10.884;2023-11-18T03:48:30;12.50;;;4.40;;
66721;SDS011;53633;49.932;10.884;2023-11-18T03:50:58;13.07;;;4.80;;
66721;SDS011;53633;49.932;10.884;2023-11-18T03:53:25;11.77;;;3.95;;
66721;SDS011;53633;49.932;10.884;2023-11-18T03:55:51;12.35;;;4.97;;
66721;SDS011;53633;49.932;10.884;2023-11-18T03:58:18;12.23;;;4.53;;
66721;SDS011;53633;49.932;10.884;2023-11-18T04:00:45;11.07;;;4.75;;
66721;SDS011;53633;49.932;10.884;2023-11-18T04:03:11;10.15;;;4.80;;
66721;SDS011;53633;49.932;10.884;2023-11-18T04:05:38;10.38;;;4.40;;
66721;SDS011;53633;49.932;10.884;2023-11-18T04:08:06;13.23;;;4.70;;
66721;SDS011;53633;49.932;10.884;2023-11-18T04:10:33;9.97;;;3.87;;
66721;SDS011;53633;49.932;10.884;2023-11-18T04:13:00;11.93;;;4.00;;
66721;SDS011;53633;49.932;10.884;2023-11-18T04:15:26;12.10;;;4.55;;
66721;SDS011;53633;49.932;10.884;2023-11-18T04:17:53;12.32;;;4.75;;
66721;SDS011;53633;49.932;10.884;2023-11-18T04:20:20;12.50;;;4.82;;
66721;SDS011;53633;49.932;10.884;2023-11-18T04:22:47;10.10;;;4.20;;
66721;SDS011;53633;49.932;10.884;2023-11-18T04:25:15;9.25;;;3.53;;
66721;SDS011;53633;49.932;10.884;2023-11-18T04:27:41;11.25;;;4.28;;
66721;SDS011;53633;49.932;10.884;2023-11-18T04:30:12;11.75;;;4.30;;
66721;SDS011;53633;49.932;10.884;2023-11-18T04:32:40;10.23;;;4.25;;
66721;SDS011;53633;49.932;10.884;2023-11-18T04:35:07;12.17;;;4.20;;
66721;SDS011;53633;49.932;10.884;2023-11-18T04:37:34;9.95;;;4.20;;
66721;SDS011;53633;49.932;10.884;2023-11-18T04:40:02;10.05;;;3.95;;
66721;SDS011;53633;49.932;10.884;2023-11-18T04:42:30;12.38;;;4.43;;
66721;SDS011;53633;49.932;10.884;2023-11-18T04:44:57;9.95;;;3.80;;
66721;SDS011;53633;49.932;10.884;2023-11-18T04:47:24;10.17;;;3.73;;
66721;SDS011;53633;49.932;10.884;2023-11-18T04:49:50;9.45;;;3.97;;
66721;SDS011;53633;49.932;10.884;2023-11-18T04:52:17;10.82;;;3.92;;
66721;SDS011;53633;49.932;10.884;2023-11-18T04:54:44;11.57;;;3.60;;
66721;SDS011;53633;49.932;10.884;2023-11-18T04:57:11;9.65;;;3.70;;
66721;SDS011;53633;49.932;10.884;2023-11-18T04:59:39;9.90;;;3.43;;
66721;SDS011;53633;49.932;10.884;2023-11-18T05:02:05;8.85;;;3.30;;
66721;SDS011;53633;49.932;10.884;2023-11-18T05:04:32;9.52;;;3.72;;
66721;SDS011;53633;49.932;10.884;2023-11-18T05:06:59;11.40;;;3.75;;
66721;SDS011;53633;49.932;10.884;2023-11-18T05:09:25;9.93;;;3.50;;
66721;SDS011;53633;49.932;10.884;2023-11-18T05:11:52;8.70;;;3.13;;
66721;SDS011;53633;49.932;10.884;2023-11-18T05:14:19;8.98;;;3.20;;
66721;SDS011;53633;49.932;10.884;2023-11-18T05:16:47;9.70;;;3.55;;
66721;SDS011;53633;49.932;10.884;2023-11-18T05:19:14;8.55;;;3.15;;
66721;SDS011;53633;49.932;10.884;2023-11-18T05:21:40;9.25;;;3.47;;
66721;SDS011;53633;49.932;10.884;2023-11-18T05:24:08;8.47;;;3.30;;
66721;SDS011;53633;49.932;10.884;2023-11-18T05:26:35;9.05;;;3.10;;
66721;SDS011;53633;49.932;10.884;2023-11-18T05:29:02;9.95;;;3.45;;
66721;SDS011;53633;49.932;10.884;2023-11-18T05:31:28;8.52;;;3.20;;
66721;SDS011;53633;49.932;10.884;2023-11-18T05:33:56;7.38;;;3.08;;
66721;SDS011;53633;49.932;10.884;2023-11-18T05:36:23;15.37;;;3.93;;
66721;SDS011;53633;49.932;10.884;2023-11-18T05:38:50;8.20;;;3.05;;
66721;SDS011;53633;49.932;10.884;2023-11-18T05:41:17;8.20;;;3.30;;
66721;SDS011;53633;49.932;10.884;2023-11-18T05:43:43;8.40;;;3.22;;
66721;SDS011;53633;49.932;10.884;2023-11-18T05:46:10;8.48;;;3.47;;
66721;SDS011;53633;49.932;10.884;2023-11-18T05:48:36;9.30;;;3.47;;
66721;SDS011;53633;49.932;10.884;2023-11-18T05:51:10;9.02;;;3.60;;
66721;SDS011;53633;49.932;10.884;2023-11-18T05:53:39;8.73;;;3.28;;
66721;SDS011;53633;49.932;10.884;2023-11-18T05:56:06;11.18;;;3.67;;
66721;SDS011;53633;49.932;10.884;2023-11-18T05:58:34;10.75;;;3.88;;
66721;SDS011;53633;49.932;10.884;2023-11-18T06:01:00;11.40;;;3.10;;
66721;SDS011;53633;49.932;10.884;2023-11-18T06:03:28;12.00;;;3.97;;
66721;SDS011;53633;49.932;10.884;2023-11-18T06:05:55;11.00;;;4.47;;
66721;SDS011;53633;49.932;10.884;2023-11-18T06:08:23;10.18;;;3.67;;
66721;SDS011;53633;49.932;10.884;2023-11-18T06:10:50;14.05;;;5.40;;
66721;SDS011;53633;49.932;10.884;2023-11-18T06:13:16;15.70;;;5.10;;
66721;SDS011;53633;49.932;10.884;2023-11-18T06:15:43;14.75;;;5.18;;
66721;SDS011;53633;49.932;10.884;2023-11-18T06:18:10;11.82;;;5.03;;
66721;SDS011;53633;49.932;10.884;2023-11-18T06:20:36;14.20;;;5.28;;
66721;SDS011;53633;49.932;10.884;2023-11-18T06:23:03;15.13;;;5.20;;
66721;SDS011;53633;49.932;10.884;2023-11-18T06:25:31;14.50;;;5.40;;
66721;SDS011;53633;49.932;10.884;2023-11-18T06:27:58;13.45;;;4.93;;
66721;SDS011;53633;49.932;10.884;2023-11-18T06:30:24;10.98;;;4.50;;
66721;SDS011;53633;49.932;10.884;2023-11-18T06:32:51;12.68;;;3.92;;
66721;SDS011;53633;49.932;10.884;2023-11-18T06:35:18;16.15;;;4.88;;
66721;SDS011;53633;49.932;10.884;2023-11-18T06:37:44;12.77;;;5.57;;
66721;SDS011;53633;49.932;10.884;2023-11-18T06:40:12;14.90;;;5.00;;
66721;SDS011;53633;49.932;10.884;2023-11-18T06:42:40;11.57;;;4.47;;
66721;SDS011;53633;49.932;10.884;2023-11-18T06:45:07;10.30;;;4.20;;
66721;SDS011;53633;49.932;10.884;2023-11-18T06:47:35;13.07;;;5.43;;
66721;SDS011;53633;49.932;10.884;2023-11-18T06:50:02;10.03;;;4.20;;
66721;SDS011;53633;49.932;10.884;2023-11-18T06:52:28;12.75;;;4.80;;
66721;SDS011;53633;49.932;10.884;2023-11-18T06:54:55;15.40;;;5.40;;
66721;SDS011;53633;49.932;10.884;2023-11-18T06:57:22;13.25;;;5.07;;
66721;SDS011;53633;49.932;10.884;2023-11-18T06:59:50;13.50;;;5.07;;
66721;SDS011;53633;49.932;10.884;2023-11-18T07:02:16;14.90;;;5.20;;
66721;SDS011;53633;49.932;10.884;2023-11-18T07:04:43;10.50;;;4.28;;
66721;SDS011;53633;49.932;10.884;2023-11-18T07:07:10;13.23;;;5.07;;
66721;SDS011;53633;49.932;10.884;2023-11-18T07:09:36;12.93;;;5.03;;
66721;SDS011;53633;49.932;10.884;2023-11-18T07:12:03;12.65;;;4.70;;
66721;SDS011;53633;49.932;10.884;2023-11-18T07:14:30;10.67;;;4.83;;
66721;SDS011;53633;49.932;10.884;2023-11-18T07:16:58;15.10;;;5.45;;
66721;SDS011;53633;49.932;10.884;2023-11-18T07:19:25;12.63;;;5.50;;
66721;SDS011;53633;49.932;10.884;2023-11-18T07:21:51;14.95;;;4.72;;
66721;SDS011;53633;49.932;10.884;2023-11-18T07:24:18;11.35;;;4.63;;
66721;SDS011;53633;49.932;10.884;2023-11-18T07:26:45;14.47;;;5.00;;
66721;SDS011;53633;49.932;10.884;2023-11-18T07:29:12;11.32;;;5.03;;
66721;SDS011;53633;49.932;10.884;2023-11-18T07:31:38;16.20;;;5.55;;
66721;SDS011;53633;49.932;10.884;2023-11-18T07:34:07;14.10;;;5.00;;
66721;SDS011;53633;49.932;10.884;2023-11-18T07:36:33;14.07;;;4.65;;
66721;SDS011;53633;49.932;10.884;2023-11-18T07:39:00;13.30;;;5.23;;
66721;SDS011;53633;49.932;10.884;2023-11-18T07:41:27;15.05;;;5.13;;
66721;SDS011;53633;49.932;10.884;2023-11-18T07:43:58;14.52;;;5.15;;
66721;SDS011;53633;49.932;10.884;2023-11-18T07:46:25;12.73;;;5.25;;
66721;SDS011;53633;49.932;10.884;2023-11-18T07:48:52;13.68;;;5.43;;
66721;SDS011;53633;49.932;10.884;2023-11-18T07:51:20;16.37;;;5.87;;
66721;SDS011;53633;49.932;10.884;2023-11-18T07:53:47;14.05;;;4.93;;
66721;SDS011;53633;49.932;10.884;2023-11-18T07:56:14;14.07;;;5.82;;
66721;SDS011;53633;49.932;10.884;2023-11-18T07:58:41;14.65;;;5.38;;
66721;SDS011;53633;49.932;10.884;2023-11-18T08:01:08;13.50;;;5.63;;
66721;SDS011;53633;49.932;10.884;2023-11-18T08:03:35;13.73;;;5.90;;
66721;SDS011;53633;49.932;10.884;2023-11-18T08:06:02;13.93;;;5.78;;
66721;SDS011;53633;49.932;10.884;2023-11-18T08:08:30;17.45;;;6.00;;
66721;SDS011;53633;49.932;10.884;2023-11-18T08:10:57;15.70;;;5.90;;
66721;SDS011;53633;49.932;10.884;2023-11-18T08:13:24;15.23;;;6.38;;
66721;SDS011;53633;49.932;10.884;2023-11-18T08:15:51;17.63;;;5.80;;
66721;SDS011;53633;49.932;10.884;2023-11-18T08:18:18;14.40;;;4.95;;
66721;SDS011;53633;49.932;10.884;2023-11-18T08:20:45;15.85;;;6.07;;
66721;SDS011;53633;49.932;10.884;2023-11-18T08:23:12;14.77;;;5.55;;
66721;SDS011;53633;49.932;10.884;2023-11-18T08:25:40;18.17;;;5.72;;
66721;SDS011;53633;49.932;10.884;2023-11-18T08:28:07;20.63;;;6.70;;
66721;SDS011;53633;49.932;10.884;2023-11-18T08:30:34;20.73;;;6.20;;
66721;SDS011;53633;49.932;10.884;2023-11-18T08:33:03;17.80;;;6.07;;
66721;SDS011;53633;49.932;10.884;2023-11-18T08:35:32;21.08;;;6.55;;
66721;SDS011;53633;49.932;10.884;2023-11-18T08:37:59;17.55;;;6.05;;
66721;SDS011;53633;49.932;10.884;2023-11-18T08:40:25;15.03;;;5.77;;
66721;SDS011;53633;49.932;10.884;2023-11-18T08:42:53;18.35;;;7.25;;
66721;SDS011;53633;49.932;10.884;2023-11-18T08:45:21;15.63;;;6.72;;
66721;SDS011;53633;49.932;10.884;2023-11-18T08:47:48;19.88;;;6.80;;
66721;SDS011;53633;49.932;10.884;2023-11-18T08:50:15;28.13;;;9.98;;
66721;SDS011;53633;49.932;10.884;2023-11-18T08:52:43;25.93;;;10.83;;
66721;SDS011;53633;49.932;10.884;2023-11-18T08:55:10;24.42;;;10.43;;
66721;SDS011;53633;49.932;10.884;2023-11-18T08:57:37;24.70;;;8.23;;
66721;SDS011;53633;49.932;10.884;2023-11-18T09:00:06;22.90;;;8.00;;
66721;SDS011;53633;49.932;10.884;2023-11-18T09:02:34;25.38;;;9.57;;
66721;SDS011;53633;49.932;10.884;2023-11-18T09:05:15;22.80;;;8.83;;
66721;SDS011;53633;49.932;10.884;2023-11-18T09:07:42;23.55;;;8.10;;
66721;SDS011;53633;49.932;10.884;2023-11-18T09:10:08;23.67;;;8.15;;
66721;SDS011;53633;49.932;10.884;2023-11-18T09:12:35;20.63;;;7.60;;
66721;SDS011;53633;49.932;10.884;2023-11-18T09:15:02;21.20;;;7.53;;
66721;SDS011;53633;49.932;10.884;2023-11-18T09:17:30;21.07;;;9.27;;
66721;SDS011;53633;49.932;10.884;2023-11-18T09:19:57;20.15;;;7.15;;
66721;SDS011;53633;49.932;10.884;2023-11-18T09:22:24;18.80;;;7.78;;
66721;SDS011;53633;49.932;10.884;2023-11-18T09:24:50;19.35;;;7.40;;
66721;SDS011;53633;49.932;10.884;2023-11-18T09:27:17;18.00;;;6.28;;
66721;SDS011;53633;49.932;10.884;2023-11-18T09:29:44;18.47;;;6.40;;
66721;SDS011;53633;49.932;10.884;2023-11-18T09:32:10;17.00;;;6.82;;
66721;SDS011;53633;49.932;10.884;2023-11-18T09:34:39;18.27;;;7.00;;
66721;SDS011;53633;49.932;10.884;2023-11-18T09:37:06;20.30;;;7.47;;
66721;SDS011;53633;49.932;10.884;2023-11-18T09:39:33;19.25;;;7.15;;
66721;SDS011;53633;49.932;10.884;2023-11-18T09:42:00;19.57;;;6.77;;
66721;SDS011;53633;49.932;10.884;2023-11-18T09:44:26;17.15;;;6.28;;
66721;SDS011;53633;49.932;10.884;2023-11-18T09:46:54;19.63;;;6.82;;
66721;SDS011;53633;49.932;10.884;2023-11-18T09:49:25;18.58;;;7.07;;
66721;SDS011;53633;49.932;10.884;2023-11-18T09:51:56;15.65;;;6.68;;
66721;SDS011;53633;49.932;10.884;2023-11-18T09:54:25;19.40;;;7.37;;
66721;SDS011;53633;49.932;10.884;2023-11-18T09:56:59;20.50;;;7.70;;
66721;SDS011;53633;49.932;10.884;2023-11-18T09:59:31;21.75;;;7.57;;
66721;SDS011;53633;49.932;10.884;2023-11-18T10:01:58;21.67;;;8.43;;
66721;SDS011;53633;49.932;10.884;2023-11-18T10:04:25;21.10;;;8.32;;
66721;SDS011;53633;49.932;10.884;2023-11-18T10:06:53;20.80;;;7.57;;
66721;SDS011;53633;49.932;10.884;2023-11-18T10:09:21;19.70;;;8.20;;
66721;SDS011;53633;49.932;10.884;2023-11-18T10:11:52;21.85;;;9.05;;
66721;SDS011;53633;49.932;10.884;2023-11-18T10:14:18;23.33;;;9.60;;
66721;SDS011;53633;49.932;10.884;2023-11-18T10:16:45;20.75;;;7.95;;
66721;SDS011;53633;49.932;10.884;2023-11-18T10:19:12;19.50;;;7.97;;
66721;SDS011;53633;49.932;10.884;2023-11-18T10:21:39;21.77;;;9.23;;
66721;SDS011;53633;49.932;10.884;2023-11-18T10:24:08;17.88;;;7.45;;
66721;SDS011;53633;49.932;10.884;2023-11-18T10:26:34;18.27;;;7.70;;
66721;SDS011;53633;49.932;10.884;2023-11-18T10:29:02;23.00;;;8.57;;
66721;SDS011;53633;49.932;10.884;2023-11-18T10:31:29;20.47;;;8.77;;
66721;SDS011;53633;49.932;10.884;2023-11-18T10:33:56;18.05;;;8.32;;
66721;SDS011;53633;49.932;10.884;2023-11-18T10:36:25;22.65;;;9.02;;
66721;SDS011;53633;49.932;10.884;2023-11-18T10:38:52;17.70;;;7.85;;
66721;SDS011;53633;49.932;10.884;2023-11-18T10:41:20;22.38;;;8.40;;
66721;SDS011;53633;49.932;10.884;2023-11-18T10:43:47;19.80;;;8.87;;
66721;SDS011;53633;49.932;10.884;2023-11-18T10:46:15;18.67;;;7.88;;
66721;SDS011;53633;49.932;10.884;2023-11-18T10:48:43;19.65;;;7.55;;
66721;SDS011;53633;49.932;10.884;2023-11-18T10:51:11;18.70;;;7.53;;
66721;SDS011;53633;49.932;10.884;2023-11-18T10:53:39;20.50;;;8.05;;
66721;SDS011;53633;49.932;10.884;2023-11-18T10:56:07;23.70;;;7.83;;
66721;SDS011;53633;49.932;10.884;2023-11-18T10:58:44;20.17;;;7.97;;
66721;SDS011;53633;49.932;10.884;2023-11-18T11:01:11;21.02;;;8.48;;
66721;SDS011;53633;49.932;10.884;2023-11-18T11:03:51;20.52;;;7.38;;
66721;SDS011;53633;49.932;10.884;2023-11-18T11:06:19;15.52;;;7.32;;
66721;SDS011;53633;49.932;10.884;2023-11-18T11:08:47;19.80;;;7.57;;
66721;SDS011;53633;49.932;10.884;2023-11-18T11:11:14;23.58;;;8.48;;
66721;SDS011;53633;49.932;10.884;2023-11-18T11:13:42;22.83;;;8.35;;
66721;SDS011;53633;49.932;10.884;2023-11-18T11:16:12;20.40;;;8.60;;
66721;SDS011;53633;49.932;10.884;2023-11-18T11:18:45;23.50;;;8.55;;
66721;SDS011;53633;49.932;10.884;2023-11-18T11:21:15;20.47;;;9.00;;
66721;SDS011;53633;49.932;10.884;2023-11-18T11:23:48;20.63;;;8.82;;
66721;SDS011;53633;49.932;10.884;2023-11-18T11:26:21;21.05;;;8.35;;
66721;SDS011;53633;49.932;10.884;2023-11-18T11:28:55;22.20;;;8.85;;
66721;SDS011;53633;49.932;10.884;2023-11-18T11:31:30;23.90;;;9.57;;
66721;SDS011;53633;49.932;10.884;2023-11-18T11:34:02;25.33;;;9.47;;
66721;SDS011;53633;49.932;10.884;2023-11-18T11:36:35;23.08;;;8.30;;
66721;SDS011;53633;49.932;10.884;2023-11-18T11:39:04;27.73;;;9.98;;
66721;SDS011;53633;49.932;10.884;2023-11-18T11:41:31;29.70;;;11.15;;
66721;SDS011;53633;49.932;10.884;2023-11-18T11:44:00;24.60;;;9.85;;
66721;SDS011;53633;49.932;10.884;2023-11-18T11:46:27;23.67;;;10.37;;
66721;SDS011;53633;49.932;10.884;2023-11-18T11:48:55;27.40;;;9.48;;
66721;SDS011;53633;49.932;10.884;2023-11-18T11:51:22;21.25;;;8.45;;
66721;SDS011;53633;49.932;10.884;2023-11-18T11:53:53;22.83;;;9.45;;
66721;SDS011;53633;49.932;10.884;2023-11-18T11:56:38;22.92;;;9.25;;
66721;SDS011;53633;49.932;10.884;2023-11-18T11:59:07;24.00;;;9.27;;
66721;SDS011;53633;49.932;10.884;2023-11-18T12:01:35;19.85;;;8.73;;
66721;SDS011;53633;49.932;10.884;2023-11-18T12:04:03;19.45;;;7.72;;
66721;SDS011;53633;49.932;10.884;2023-11-18T12:06:30;22.20;;;8.10;;
66721;SDS011;53633;49.932;10.884;2023-11-18T12:08:58;23.95;;;8.27;;
66721;SDS011;53633;49.932;10.884;2023-11-18T12:11:25;22.30;;;7.93;;
66721;SDS011;53633;49.932;10.884;2023-11-18T12:14:01;28.27;;;9.35;;
66721;SDS011;53633;49.932;10.884;2023-11-18T12:19:31;22.50;;;7.75;;
66721;SDS011;53633;49.932;10.884;2023-11-18T12:21:59;19.73;;;7.20;;
66721;SDS011;53633;49.932;10.884;2023-11-18T12:24:25;19.38;;;7.15;;
66721;SDS011;53633;49.932;10.884;2023-11-18T12:26:52;19.63;;;7.87;;
66721;SDS011;53633;49.932;10.884;2023-11-18T12:29:30;19.00;;;7.78;;
66721;SDS011;53633;49.932;10.884;2023-11-18T12:31:57;17.98;;;7.13;;
66721;SDS011;53633;49.932;10.884;2023-11-18T12:34:24;18.98;;;7.32;;
66721;SDS011;53633;49.932;10.884;2023-11-18T12:36:58;17.60;;;6.85;;
66721;SDS011;53633;49.932;10.884;2023-11-18T12:43:02;29.13;;;13.57;;
66721;SDS011;53633;49.932;10.884;2023-11-18T12:45:42;25.92;;;11.73;;
66721;SDS011;53633;49.932;10.884;2023-11-18T12:48:13;24.65;;;10.88;;
66721;SDS011;53633;49.932;10.884;2023-11-18T12:50:41;24.40;;;11.02;;
66721;SDS011;53633;49.932;10.884;2023-11-18T12:53:09;23.83;;;9.60;;
66721;SDS011;53633;49.932;10.884;2023-11-18T12:55:37;21.75;;;9.05;;
66721;SDS011;53633;49.932;10.884;2023-11-18T12:58:06;19.00;;;8.02;;
66721;SDS011;53633;49.932;10.884;2023-11-18T13:00:33;21.00;;;8.57;;
66721;SDS011;53633;49.932;10.884;2023-11-18T13:03:00;19.42;;;8.15;;
66721;SDS011;53633;49.932;10.884;2023-11-18T13:05:27;21.43;;;9.50;;
66721;SDS011;53633;49.932;10.884;2023-11-18T13:07:54;19.52;;;8.77;;
66721;SDS011;53633;49.932;10.884;2023-11-18T13:10:22;19.58;;;8.93;;
66721;SDS011;53633;49.932;10.884;2023-11-18T13:12:48;22.50;;;8.85;;
66721;SDS011;53633;49.932;10.884;2023-11-18T13:15:15;18.15;;;8.35;;
66721;SDS011;53633;49.932;10.884;2023-11-18T13:17:56;19.33;;;8.40;;
66721;SDS011;53633;49.932;10.884;2023-11-18T13:20:23;20.73;;;9.15;;
66721;SDS011;53633;49.932;10.884;2023-11-18T13:22:50;22.67;;;9.82;;
66721;SDS011;53633;49.932;10.884;2023-11-18T13:25:17;23.30;;;9.65;;
66721;SDS011;53633;49.932;10.884;2023-11-18T13:27:45;21.98;;;9.18;;
66721;SDS011;53633;49.932;10.884;2023-11-18T13:30:12;19.07;;;8.37;;
66721;SDS011;53633;49.932;10.884;2023-11-18T13:32:40;20.23;;;8.15;;
66721;SDS011;53633;49.932;10.884;2023-11-18T13:35:07;20.38;;;8.73;;
66721;SDS011;53633;49.932;10.884;2023-11-18T13:37:34;22.00;;;9.98;;
66721;SDS011;53633;49.932;10.884;2023-11-18T13:40:01;21.73;;;9.35;;
66721;SDS011;53633;49.932;10.884;2023-11-18T13:42:28;23.43;;;9.93;;
66721;SDS011;53633;49.932;10.884;2023-11-18T13:45:00;29.90;;;10.50;;
66721;SDS011;53633;49.932;10.884;2023-11-18T13:47:29;30.92;;;11.68;;
66721;SDS011;53633;49.932;10.884;2023-11-18T13:49:56;24.85;;;9.55;;
66721;SDS011;53633;49.932;10.884;2023-11-18T13:52:23;23.50;;;9.25;;
66721;SDS011;53633;49.932;10.884;2023-11-18T13:54:50;22.23;;;8.53;;
66721;SDS011;53633;49.932;10.884;2023-11-18T13:57:17;22.38;;;8.40;;
66721;SDS011;53633;49.932;10.884;2023-11-18T13:59:44;21.08;;;8.82;;
66721;SDS011;53633;49.932;10.884;2023-11-18T14:02:12;19.60;;;7.75;;
66721;SDS011;53633;49.932;10.884;2023-11-18T14:04:39;21.38;;;8.43;;
66721;SDS011;53633;49.932;10.884;2023-11-18T14:07:06;21.63;;;8.23;;
66721;SDS011;53633;49.932;10.884;2023-11-18T14:09:33;18.90;;;8.68;;
66721;SDS011;53633;49.932;10.884;2023-11-18T14:11:59;18.23;;;7.82;;
66721;SDS011;53633;49.932;10.884;2023-11-18T14:14:26;19.52;;;8.80;;
66721;SDS011;53633;49.932;10.884;2023-11-18T14:16:53;19.02;;;8.38;;
66721;SDS011;53633;49.932;10.884;2023-11-18T14:19:21;21.37;;;8.00;;
66721;SDS011;53633;49.932;10.884;2023-11-18T14:21:48;18.73;;;8.48;;
66721;SDS011;53633;49.932;10.884;2023-11-18T14:24:15;20.80;;;8.80;;
66721;SDS011;53633;49.932;10.884;2023-11-18T14:26:41;23.50;;;8.98;;
66721;SDS011;53633;49.932;10.884;2023-11-18T14:29:08;21.58;;;9.95;;
66721;SDS011;53633;49.932;10.884;2023-11-18T14:31:35;19.60;;;8.93;;